sensor_id;sensor_type;location;lat;lon;timestamp;pressure;altitude;pressure_sealevel;temperature;humidity
39411;BME280;26579;43.238;23.124;2023-04-02T00:01:22;95976.06;;;11.16;52.49
39411;BME280;26579;43.238;23.124;2023-04-02T00:08:52;95981.69;;;11.03;52.33
39411;BME280;26579;43.238;23.124;2023-04-02T00:11:30;95983.47;;;11.02;53.04
39411;BME280;26579;43.238;23.124;2023-04-02T00:13:59;95987.97;;;10.92;52.08
39411;BME280;26579;43.238;23.124;2023-04-02T00:16:26;95977.56;;;10.74;53.18
39411;BME280;26579;43.238;23.124;2023-04-02T00:18:55;95976.16;;;10.80;52.65
39411;BME280;26579;43.238;23.124;2023-04-02T00:21:31;95988.94;;;10.91;52.04
39411;BME280;26579;43.238;23.124;2023-04-02T00:24:00;95989.06;;;10.90;50.37
39411;BME280;26579;43.238;23.124;2023-04-02T00:26:38;95990.69;;;10.91;51.69
39411;BME280;26579;43.238;23.124;2023-04-02T00:29:11;95954.06;;;10.66;51.79
39411;BME280;26579;43.238;23.124;2023-04-02T00:31:40;95985.38;;;10.74;51.70
39411;BME280;26579;43.238;23.124;2023-04-02T00:34:11;95993.00;;;10.76;51.35
39411;BME280;26579;43.238;23.124;2023-04-02T00:36:39;95992.13;;;10.85;50.48
39411;BME280;26579;43.238;23.124;2023-04-02T00:39:11;95985.06;;;10.77;52.59
39411;BME280;26579;43.238;23.124;2023-04-02T00:41:40;95981.56;;;10.86;50.79
39411;BME280;26579;43.238;23.124;2023-04-02T00:44:10;95967.88;;;10.84;49.43
39411;BME280;26579;43.238;23.124;2023-04-02T00:46:41;95974.84;;;11.02;49.33
39411;BME280;26579;43.238;23.124;2023-04-02T00:49:14;95965.75;;;11.06;47.72
39411;BME280;26579;43.238;23.124;2023-04-02T00:51:46;95980.84;;;11.20;47.13
39411;BME280;26579;43.238;23.124;2023-04-02T00:54:18;95971.91;;;11.23;47.15
39411;BME280;26579;43.238;23.124;2023-04-02T00:56:48;95991.53;;;11.35;48.73
39411;BME280;26579;43.238;23.124;2023-04-02T00:59:26;95973.41;;;11.33;45.07
39411;BME280;26579;43.238;23.124;2023-04-02T01:02:22;95989.91;;;11.42;47.60
39411;BME280;26579;43.238;23.124;2023-04-02T01:04:54;95970.31;;;11.30;47.34
39411;BME280;26579;43.238;23.124;2023-04-02T01:10:14;95980.84;;;11.46;46.06
39411;BME280;26579;43.238;23.124;2023-04-02T01:15:43;95972.53;;;11.51;46.53
39411;BME280;26579;43.238;23.124;2023-04-02T01:18:22;95979.69;;;11.49;47.23
39411;BME280;26579;43.238;23.124;2023-04-02T01:21:28;95968.44;;;11.48;44.80
39411;BME280;26579;43.238;23.124;2023-04-02T01:31:27;95963.16;;;11.66;43.70
39411;BME280;26579;43.238;23.124;2023-04-02T01:33:54;95975.44;;;11.74;43.59
39411;BME280;26579;43.238;23.124;2023-04-02T01:36:51;95969.41;;;11.73;43.45
39411;BME280;26579;43.238;23.124;2023-04-02T01:42:04;95980.50;;;11.84;42.53
39411;BME280;26579;43.238;23.124;2023-04-02T01:45:04;95973.41;;;11.86;43.20
39411;BME280;26579;43.238;23.124;2023-04-02T01:47:32;95978.91;;;11.83;42.72
39411;BME280;26579;43.238;23.124;2023-04-02T01:50:10;95978.97;;;11.91;43.42
39411;BME280;26579;43.238;23.124;2023-04-02T01:52:42;95961.13;;;11.78;42.84
39411;BME280;26579;43.238;23.124;2023-04-02T01:55:12;95972.25;;;11.88;41.89
39411;BME280;26579;43.238;23.124;2023-04-02T01:57:41;95971.59;;;11.86;41.89
39411;BME280;26579;43.238;23.124;2023-04-02T02:00:14;95986.34;;;12.04;42.51
39411;BME280;26579;43.238;23.124;2023-04-02T02:02:46;95992.88;;;12.08;43.14
39411;BME280;26579;43.238;23.124;2023-04-02T02:05:15;95986.03;;;12.07;43.48
39411;BME280;26579;43.238;23.124;2023-04-02T02:07:44;95991.56;;;12.04;43.36
39411;BME280;26579;43.238;23.124;2023-04-02T02:10:15;95984.41;;;12.06;43.77
39411;BME280;26579;43.238;23.124;2023-04-02T02:12:45;95972.25;;;11.88;45.89
39411;BME280;26579;43.238;23.124;2023-04-02T02:15:17;95991.34;;;11.89;47.52
39411;BME280;26579;43.238;23.124;2023-04-02T02:17:44;95982.94;;;11.77;46.47
39411;BME280;26579;43.238;23.124;2023-04-02T02:20:11;95990.03;;;11.59;48.42
39411;BME280;26579;43.238;23.124;2023-04-02T02:22:48;95990.28;;;11.47;46.91
39411;BME280;26579;43.238;23.124;2023-04-02T02:25:18;95975.06;;;11.35;48.83
39411;BME280;26579;43.238;23.124;2023-04-02T02:27:58;95986.25;;;11.27;48.17
39411;BME280;26579;43.238;23.124;2023-04-02T02:30:43;95992.59;;;11.24;47.48
39411;BME280;26579;43.238;23.124;2023-04-02T02:41:18;95985.22;;;11.20;47.68
39411;BME280;26579;43.238;23.124;2023-04-02T02:43:59;95978.88;;;11.22;48.50
39411;BME280;26579;43.238;23.124;2023-04-02T02:46:27;95987.69;;;11.21;47.58
39411;BME280;26579;43.238;23.124;2023-04-02T02:48:56;95990.97;;;11.23;48.67
39411;BME280;26579;43.238;23.124;2023-04-02T02:51:28;95991.13;;;11.04;50.67
39411;BME280;26579;43.238;23.124;2023-04-02T02:54:00;95997.69;;;10.90;51.25
39411;BME280;26579;43.238;23.124;2023-04-02T02:56:29;96000.16;;;10.92;50.36
39411;BME280;26579;43.238;23.124;2023-04-02T02:58:56;95993.63;;;10.70;49.95
39411;BME280;26579;43.238;23.124;2023-04-02T03:01:29;96008.13;;;10.72;50.89
39411;BME280;26579;43.238;23.124;2023-04-02T03:03:58;95989.47;;;10.59;53.46
39411;BME280;26579;43.238;23.124;2023-04-02T03:06:24;96003.34;;;10.50;54.58
39411;BME280;26579;43.238;23.124;2023-04-02T03:12:02;95998.22;;;10.40;52.75
39411;BME280;26579;43.238;23.124;2023-04-02T03:14:36;96004.44;;;10.29;53.81
39411;BME280;26579;43.238;23.124;2023-04-02T03:17:32;96002.81;;;10.28;52.55
39411;BME280;26579;43.238;23.124;2023-04-02T03:23:30;96008.06;;;10.18;52.97
39411;BME280;26579;43.238;23.124;2023-04-02T03:28:32;96007.75;;;10.22;53.59
39411;BME280;26579;43.238;23.124;2023-04-02T03:33:47;96004.84;;;10.07;54.05
39411;BME280;26579;43.238;23.124;2023-04-02T03:36:34;96014.91;;;9.92;54.06
39411;BME280;26579;43.238;23.124;2023-04-02T03:39:17;96013.69;;;9.86;55.29
39411;BME280;26579;43.238;23.124;2023-04-02T03:44:27;96014.75;;;9.93;53.76
39411;BME280;26579;43.238;23.124;2023-04-02T03:47:02;96017.81;;;9.79;54.51
39411;BME280;26579;43.238;23.124;2023-04-02T03:49:37;96023.81;;;9.80;54.29
39411;BME280;26579;43.238;23.124;2023-04-02T03:52:10;96003.59;;;9.73;53.92
39411;BME280;26579;43.238;23.124;2023-04-02T03:54:38;96011.91;;;9.87;53.58
39411;BME280;26579;43.238;23.124;2023-04-02T03:57:21;96014.91;;;9.82;54.33
39411;BME280;26579;43.238;23.124;2023-04-02T04:02:48;96015.50;;;9.76;54.75
39411;BME280;26579;43.238;23.124;2023-04-02T04:05:28;96006.28;;;9.54;55.42
39411;BME280;26579;43.238;23.124;2023-04-02T04:08:07;96017.56;;;9.72;54.68
39411;BME280;26579;43.238;23.124;2023-04-02T04:10:39;96023.28;;;9.76;54.11
39411;BME280;26579;43.238;23.124;2023-04-02T04:13:16;96028.38;;;9.68;54.03
39411;BME280;26579;43.238;23.124;2023-04-02T04:15:59;96018.97;;;9.67;54.28
39411;BME280;26579;43.238;23.124;2023-04-02T04:18:44;96034.66;;;9.75;54.58
39411;BME280;26579;43.238;23.124;2023-04-02T04:21:21;96043.28;;;9.75;53.78
39411;BME280;26579;43.238;23.124;2023-04-02T04:23:49;96036.97;;;9.78;53.52
39411;BME280;26579;43.238;23.124;2023-04-02T04:26:25;96047.91;;;9.82;53.52
39411;BME280;26579;43.238;23.124;2023-04-02T04:31:47;96054.38;;;9.78;53.93
39411;BME280;26579;43.238;23.124;2023-04-02T04:36:52;96051.50;;;9.71;54.20
39411;BME280;26579;43.238;23.124;2023-04-02T04:39:25;96039.34;;;9.62;53.35
39411;BME280;26579;43.238;23.124;2023-04-02T04:41:56;96066.25;;;9.70;54.26
39411;BME280;26579;43.238;23.124;2023-04-02T04:44:38;96055.09;;;9.60;53.44
39411;BME280;26579;43.238;23.124;2023-04-02T04:47:13;96069.03;;;9.69;53.87
39411;BME280;26579;43.238;23.124;2023-04-02T04:49:50;96071.06;;;9.75;54.41
39411;BME280;26579;43.238;23.124;2023-04-02T04:52:23;96065.16;;;9.73;53.98
39411;BME280;26579;43.238;23.124;2023-04-02T04:54:50;96076.63;;;9.80;54.23
39411;BME280;26579;43.238;23.124;2023-04-02T04:57:35;96073.63;;;9.85;54.12
39411;BME280;26579;43.238;23.124;2023-04-02T05:02:51;96081.31;;;10.14;53.01
39411;BME280;26579;43.238;23.124;2023-04-02T05:05:23;96070.03;;;10.23;52.51
39411;BME280;26579;43.238;23.124;2023-04-02T05:07:55;96079.09;;;10.47;51.90
39411;BME280;26579;43.238;23.124;2023-04-02T05:10:43;96087.50;;;10.68;51.94
39411;BME280;26579;43.238;23.124;2023-04-02T05:13:21;96092.03;;;10.84;51.98
39411;BME280;26579;43.238;23.124;2023-04-02T05:18:50;96090.78;;;11.24;50.51
39411;BME280;26579;43.238;23.124;2023-04-02T05:21:36;96085.03;;;11.38;50.89
39411;BME280;26579;43.238;23.124;2023-04-02T05:26:44;96093.28;;;11.77;48.95
39411;BME280;26579;43.238;23.124;2023-04-02T05:29:19;96078.75;;;11.93;48.59
39411;BME280;26579;43.238;23.124;2023-04-02T05:31:54;96094.25;;;12.29;48.06
39411;BME280;26579;43.238;23.124;2023-04-02T05:34:27;96099.22;;;12.48;47.11
39411;BME280;26579;43.238;23.124;2023-04-02T05:36:55;96076.88;;;12.54;46.67
39411;BME280;26579;43.238;23.124;2023-04-02T05:39:23;96099.81;;;12.84;46.85
39411;BME280;26579;43.238;23.124;2023-04-02T05:42:20;96099.03;;;13.00;47.04
39411;BME280;26579;43.238;23.124;2023-04-02T05:47:41;96086.66;;;13.43;46.29
39411;BME280;26579;43.238;23.124;2023-04-02T05:50:28;96095.31;;;13.68;45.63
39411;BME280;26579;43.238;23.124;2023-04-02T05:53:25;96097.72;;;13.94;43.40
39411;BME280;26579;43.238;23.124;2023-04-02T05:56:10;96094.91;;;14.12;44.00
39411;BME280;26579;43.238;23.124;2023-04-02T05:58:50;96091.69;;;14.41;43.66
39411;BME280;26579;43.238;23.124;2023-04-02T06:01:43;96095.84;;;14.75;42.52
39411;BME280;26579;43.238;23.124;2023-04-02T06:04:49;96086.53;;;14.96;42.04
39411;BME280;26579;43.238;23.124;2023-04-02T06:07:25;96096.16;;;15.26;41.66
39411;BME280;26579;43.238;23.124;2023-04-02T06:10:06;96089.97;;;15.42;37.36
39411;BME280;26579;43.238;23.124;2023-04-02T06:12:57;96094.91;;;15.60;37.81
39411;BME280;26579;43.238;23.124;2023-04-02T06:15:25;96094.78;;;15.76;37.98
39411;BME280;26579;43.238;23.124;2023-04-02T06:20:41;96093.25;;;15.97;40.11
39411;BME280;26579;43.238;23.124;2023-04-02T06:26:06;96096.38;;;16.00;41.69
39411;BME280;26579;43.238;23.124;2023-04-02T06:28:49;96090.13;;;16.16;39.58
39411;BME280;26579;43.238;23.124;2023-04-02T06:31:44;96097.91;;;16.24;37.96
39411;BME280;26579;43.238;23.124;2023-04-02T06:34:22;96082.06;;;16.33;37.18
39411;BME280;26579;43.238;23.124;2023-04-02T06:37:41;96090.47;;;16.43;35.88
39411;BME280;26579;43.238;23.124;2023-04-02T06:40:43;96093.34;;;16.78;37.08
39411;BME280;26579;43.238;23.124;2023-04-02T06:43:41;96088.56;;;17.03;35.76
39411;BME280;26579;43.238;23.124;2023-04-02T06:46:33;96086.63;;;17.33;33.87
39411;BME280;26579;43.238;23.124;2023-04-02T06:49:24;96086.69;;;17.18;32.25
39411;BME280;26579;43.238;23.124;2023-04-02T06:51:57;96085.88;;;17.39;32.19
39411;BME280;26579;43.238;23.124;2023-04-02T06:54:26;96078.38;;;17.57;32.33
39411;BME280;26579;43.238;23.124;2023-04-02T06:56:56;96089.94;;;17.63;32.91
39411;BME280;26579;43.238;23.124;2023-04-02T06:59:29;96100.59;;;17.55;31.87
39411;BME280;26579;43.238;23.124;2023-04-02T07:02:23;96084.81;;;17.33;30.68
39411;BME280;26579;43.238;23.124;2023-04-02T07:04:54;96101.28;;;17.42;31.40
39411;BME280;26579;43.238;23.124;2023-04-02T07:07:23;96114.53;;;17.77;30.78
39411;BME280;26579;43.238;23.124;2023-04-02T07:09:49;96116.44;;;17.83;30.71
39411;BME280;26579;43.238;23.124;2023-04-02T07:12:21;96118.91;;;17.84;30.09
39411;BME280;26579;43.238;23.124;2023-04-02T07:14:48;96124.47;;;17.75;30.00
39411;BME280;26579;43.238;23.124;2023-04-02T07:17:18;96119.41;;;17.52;29.82
39411;BME280;26579;43.238;23.124;2023-04-02T07:19:45;96110.69;;;17.51;29.62
39411;BME280;26579;43.238;23.124;2023-04-02T07:22:11;96114.94;;;17.52;29.62
39411;BME280;26579;43.238;23.124;2023-04-02T07:24:40;96126.66;;;17.93;30.33
39411;BME280;26579;43.238;23.124;2023-04-02T07:27:06;96109.03;;;17.93;29.84
39411;BME280;26579;43.238;23.124;2023-04-02T07:29:31;96109.22;;;17.92;30.49
39411;BME280;26579;43.238;23.124;2023-04-02T07:31:57;96090.84;;;17.98;30.21
39411;BME280;26579;43.238;23.124;2023-04-02T07:34:23;96119.06;;;18.39;28.79
39411;BME280;26579;43.238;23.124;2023-04-02T07:36:48;96134.44;;;18.36;28.69
39411;BME280;26579;43.238;23.124;2023-04-02T07:39:14;96107.22;;;18.28;28.67
39411;BME280;26579;43.238;23.124;2023-04-02T07:41:57;96121.16;;;18.50;29.25
39411;BME280;26579;43.238;23.124;2023-04-02T07:44:23;96125.56;;;18.78;28.58
39411;BME280;26579;43.238;23.124;2023-04-02T07:46:49;96135.91;;;18.45;28.95
39411;BME280;26579;43.238;23.124;2023-04-02T07:49:15;96132.06;;;18.13;29.30
39411;BME280;26579;43.238;23.124;2023-04-02T07:51:40;96129.44;;;17.63;29.52
39411;BME280;26579;43.238;23.124;2023-04-02T07:54:06;96119.28;;;17.38;30.31
39411;BME280;26579;43.238;23.124;2023-04-02T07:56:32;96134.06;;;17.39;31.11
39411;BME280;26579;43.238;23.124;2023-04-02T07:58:57;96140.06;;;17.33;30.42
39411;BME280;26579;43.238;23.124;2023-04-02T08:01:25;96134.94;;;17.25;29.71
39411;BME280;26579;43.238;23.124;2023-04-02T08:03:52;96137.84;;;17.15;31.04
39411;BME280;26579;43.238;23.124;2023-04-02T08:06:18;96136.56;;;17.26;30.17
39411;BME280;26579;43.238;23.124;2023-04-02T08:08:44;96136.44;;;17.77;31.20
39411;BME280;26579;43.238;23.124;2023-04-02T08:11:10;96125.41;;;18.17;30.50
39411;BME280;26579;43.238;23.124;2023-04-02T08:13:36;96131.53;;;18.24;30.06
39411;BME280;26579;43.238;23.124;2023-04-02T08:16:03;96125.94;;;18.05;29.24
39411;BME280;26579;43.238;23.124;2023-04-02T08:18:30;96136.59;;;17.97;29.28
39411;BME280;26579;43.238;23.124;2023-04-02T08:20:56;96134.78;;;17.76;29.39
39411;BME280;26579;43.238;23.124;2023-04-02T08:23:22;96146.59;;;17.59;29.70
39411;BME280;26579;43.238;23.124;2023-04-02T08:25:50;96134.78;;;17.33;29.78
39411;BME280;26579;43.238;23.124;2023-04-02T08:28:16;96140.91;;;17.34;29.77
39411;BME280;26579;43.238;23.124;2023-04-02T08:30:42;96144.44;;;17.26;29.85
39411;BME280;26579;43.238;23.124;2023-04-02T08:33:08;96147.44;;;17.23;29.45
39411;BME280;26579;43.238;23.124;2023-04-02T08:35:34;96159.22;;;17.27;30.01
39411;BME280;26579;43.238;23.124;2023-04-02T08:38:00;96162.81;;;17.41;29.32
39411;BME280;26579;43.238;23.124;2023-04-02T08:40:30;96167.25;;;17.40;29.21
39411;BME280;26579;43.238;23.124;2023-04-02T08:45:35;96170.22;;;17.52;28.29
39411;BME280;26579;43.238;23.124;2023-04-02T08:48:04;96169.13;;;17.68;29.13
39411;BME280;26579;43.238;23.124;2023-04-02T08:50:39;96158.28;;;17.99;27.93
39411;BME280;26579;43.238;23.124;2023-04-02T08:53:13;96154.50;;;18.71;27.13
39411;BME280;26579;43.238;23.124;2023-04-02T08:58:52;96157.56;;;19.23;26.69
39411;BME280;26579;43.238;23.124;2023-04-02T09:04:23;96155.25;;;19.68;26.74
39411;BME280;26579;43.238;23.124;2023-04-02T09:06:51;96158.50;;;19.97;26.11
39411;BME280;26579;43.238;23.124;2023-04-02T09:09:18;96160.28;;;19.50;25.14
39411;BME280;26579;43.238;23.124;2023-04-02T09:11:59;96152.19;;;18.96;26.16
39411;BME280;26579;43.238;23.124;2023-04-02T09:14:42;96164.97;;;18.93;26.30
39411;BME280;26579;43.238;23.124;2023-04-02T09:17:19;96173.94;;;19.05;29.09
39411;BME280;26579;43.238;23.124;2023-04-02T09:19:56;96166.88;;;19.19;28.75
39411;BME280;26579;43.238;23.124;2023-04-02T09:22:26;96174.78;;;19.06;27.87
39411;BME280;26579;43.238;23.124;2023-04-02T09:24:57;96154.38;;;18.80;27.10
39411;BME280;26579;43.238;23.124;2023-04-02T09:27:30;96169.59;;;18.84;27.61
39411;BME280;26579;43.238;23.124;2023-04-02T09:32:53;96165.16;;;18.22;26.71
39411;BME280;26579;43.238;23.124;2023-04-02T09:35:21;96167.97;;;18.20;28.50
39411;BME280;26579;43.238;23.124;2023-04-02T09:43:34;96156.25;;;18.23;27.51
39411;BME280;26579;43.238;23.124;2023-04-02T09:46:15;96138.72;;;18.08;27.08
39411;BME280;26579;43.238;23.124;2023-04-02T09:48:52;96170.66;;;18.27;26.74
39411;BME280;26579;43.238;23.124;2023-04-02T09:51:22;96168.50;;;18.09;26.98
39411;BME280;26579;43.238;23.124;2023-04-02T09:56:30;96164.03;;;17.81;27.15
39411;BME280;26579;43.238;23.124;2023-04-02T10:04:45;96168.50;;;17.81;27.41
39411;BME280;26579;43.238;23.124;2023-04-02T10:07:42;96176.47;;;17.73;27.05
39411;BME280;26579;43.238;23.124;2023-04-02T10:13:24;96166.22;;;17.78;27.43
39411;BME280;26579;43.238;23.124;2023-04-02T10:21:04;96158.06;;;17.73;28.75
39411;BME280;26579;43.238;23.124;2023-04-02T10:23:31;96159.66;;;17.74;28.28
39411;BME280;26579;43.238;23.124;2023-04-02T10:26:23;96163.25;;;17.66;28.36
39411;BME280;26579;43.238;23.124;2023-04-02T10:29:22;96162.25;;;17.67;28.43
39411;BME280;26579;43.238;23.124;2023-04-02T10:35:00;96173.09;;;17.57;29.02
39411;BME280;26579;43.238;23.124;2023-04-02T10:40:10;96169.66;;;18.28;30.28
39411;BME280;26579;43.238;23.124;2023-04-02T10:45:41;96156.88;;;18.94;29.45
39411;BME280;26579;43.238;23.124;2023-04-02T10:48:26;96160.59;;;18.72;28.28
39411;BME280;26579;43.238;23.124;2023-04-02T10:51:18;96167.59;;;18.58;28.72
39411;BME280;26579;43.238;23.124;2023-04-02T10:56:53;96160.94;;;18.27;29.98
39411;BME280;26579;43.238;23.124;2023-04-02T10:59:24;96147.00;;;18.05;29.96
39411;BME280;26579;43.238;23.124;2023-04-02T11:01:53;96142.53;;;18.06;29.08
39411;BME280;26579;43.238;23.124;2023-04-02T11:04:26;96161.81;;;18.06;30.29
39411;BME280;26579;43.238;23.124;2023-04-02T11:07:09;96158.97;;;18.36;29.36
39411;BME280;26579;43.238;23.124;2023-04-02T11:09:42;96155.56;;;18.42;28.39
39411;BME280;26579;43.238;23.124;2023-04-02T11:15:00;96155.59;;;18.21;29.20
39411;BME280;26579;43.238;23.124;2023-04-02T11:17:27;96150.78;;;18.24;28.01
39411;BME280;26579;43.238;23.124;2023-04-02T11:19:53;96137.66;;;18.31;28.07
39411;BME280;26579;43.238;23.124;2023-04-02T11:22:23;96148.41;;;18.71;29.13
39411;BME280;26579;43.238;23.124;2023-04-02T11:24:51;96149.38;;;18.98;28.45
39411;BME280;26579;43.238;23.124;2023-04-02T11:27:28;96149.44;;;19.18;27.40
39411;BME280;26579;43.238;23.124;2023-04-02T11:30:20;96140.97;;;19.42;27.34
39411;BME280;26579;43.238;23.124;2023-04-02T11:32:48;96149.56;;;19.78;26.86
39411;BME280;26579;43.238;23.124;2023-04-02T11:37:57;96148.53;;;20.19;27.28
39411;BME280;26579;43.238;23.124;2023-04-02T11:40:48;96147.72;;;20.25;27.58
39411;BME280;26579;43.238;23.124;2023-04-02T11:46:01;96149.38;;;19.86;23.84
39411;BME280;26579;43.238;23.124;2023-04-02T11:48:29;96146.72;;;19.86;23.77
39411;BME280;26579;43.238;23.124;2023-04-02T11:50:55;96141.84;;;19.83;24.34
39411;BME280;26579;43.238;23.124;2023-04-02T11:53:29;96136.16;;;19.73;25.15
39411;BME280;26579;43.238;23.124;2023-04-02T12:09:26;96129.25;;;19.65;24.23
39411;BME280;26579;43.238;23.124;2023-04-02T12:11:59;96129.25;;;19.72;25.36
39411;BME280;26579;43.238;23.124;2023-04-02T12:17:01;96128.84;;;19.88;25.10
39411;BME280;26579;43.238;23.124;2023-04-02T12:19:29;96126.00;;;19.83;24.99
39411;BME280;26579;43.238;23.124;2023-04-02T12:21:56;96134.75;;;19.90;24.89
39411;BME280;26579;43.238;23.124;2023-04-02T12:24:23;96131.88;;;19.92;24.54
39411;BME280;26579;43.238;23.124;2023-04-02T12:27:15;96117.47;;;19.74;25.76
39411;BME280;26579;43.238;23.124;2023-04-02T12:29:42;96114.22;;;19.79;28.42
39411;BME280;26579;43.238;23.124;2023-04-02T12:32:28;96102.03;;;19.91;25.55
39411;BME280;26579;43.238;23.124;2023-04-02T12:34:55;96127.59;;;20.17;25.81
39411;BME280;26579;43.238;23.124;2023-04-02T12:37:24;96107.84;;;20.40;27.56
39411;BME280;26579;43.238;23.124;2023-04-02T12:40:16;96121.47;;;20.43;24.28
39411;BME280;26579;43.238;23.124;2023-04-02T12:42:42;96116.97;;;20.44;25.18
39411;BME280;26579;43.238;23.124;2023-04-02T12:45:27;96116.38;;;20.42;23.67
39411;BME280;26579;43.238;23.124;2023-04-02T12:47:54;96110.91;;;20.37;24.01
39411;BME280;26579;43.238;23.124;2023-04-02T12:50:20;96112.91;;;20.41;23.69
39411;BME280;26579;43.238;23.124;2023-04-02T12:52:51;96106.19;;;20.58;23.54
39411;BME280;26579;43.238;23.124;2023-04-02T12:55:21;96083.50;;;20.11;23.68
39411;BME280;26579;43.238;23.124;2023-04-02T12:57:47;96107.31;;;20.04;23.91
39411;BME280;26579;43.238;23.124;2023-04-02T13:02:48;96104.66;;;20.04;25.40
39411;BME280;26579;43.238;23.124;2023-04-02T13:05:39;96099.56;;;20.16;24.82
39411;BME280;26579;43.238;23.124;2023-04-02T13:08:12;96105.84;;;20.15;25.20
39411;BME280;26579;43.238;23.124;2023-04-02T13:10:40;96099.53;;;20.29;25.11
39411;BME280;26579;43.238;23.124;2023-04-02T13:13:15;96099.31;;;20.24;25.97
39411;BME280;26579;43.238;23.124;2023-04-02T13:15:41;96097.94;;;20.15;25.13
39411;BME280;26579;43.238;23.124;2023-04-02T13:20:40;96104.78;;;20.36;24.55
39411;BME280;26579;43.238;23.124;2023-04-02T13:25:50;96112.78;;;20.03;26.56
39411;BME280;26579;43.238;23.124;2023-04-02T13:28:16;96105.69;;;19.83;26.59
39411;BME280;26579;43.238;23.124;2023-04-02T13:30:42;96109.75;;;19.86;26.49
39411;BME280;26579;43.238;23.124;2023-04-02T13:33:07;96098.38;;;19.65;26.19
39411;BME280;26579;43.238;23.124;2023-04-02T13:35:33;96099.78;;;19.55;26.35
39411;BME280;26579;43.238;23.124;2023-04-02T13:37:59;96115.56;;;19.28;26.13
39411;BME280;26579;43.238;23.124;2023-04-02T13:40:24;96108.84;;;19.26;26.21
39411;BME280;26579;43.238;23.124;2023-04-02T13:42:50;96094.78;;;19.05;26.04
39411;BME280;26579;43.238;23.124;2023-04-02T13:45:25;96112.28;;;19.06;26.56
39411;BME280;26579;43.238;23.124;2023-04-02T13:47:52;96107.97;;;18.98;27.71
39411;BME280;26579;43.238;23.124;2023-04-02T13:50:21;96109.22;;;18.61;26.40
39411;BME280;26579;43.238;23.124;2023-04-02T13:52:51;96110.75;;;18.77;26.99
39411;BME280;26579;43.238;23.124;2023-04-02T13:55:20;96103.09;;;19.02;27.28
39411;BME280;26579;43.238;23.124;2023-04-02T13:57:47;96087.69;;;18.99;25.79
39411;BME280;26579;43.238;23.124;2023-04-02T14:00:13;96089.53;;;19.05;26.54
39411;BME280;26579;43.238;23.124;2023-04-02T14:02:42;96095.66;;;19.19;26.39
39411;BME280;26579;43.238;23.124;2023-04-02T14:07:49;96101.84;;;18.85;26.71
39411;BME280;26579;43.238;23.124;2023-04-02T14:15:54;96102.81;;;18.36;27.48
39411;BME280;26579;43.238;23.124;2023-04-02T14:21:52;96104.06;;;18.40;28.50
39411;BME280;26579;43.238;23.124;2023-04-02T14:27:18;96098.00;;;18.46;28.71
39411;BME280;26579;43.238;23.124;2023-04-02T14:29:57;96085.22;;;18.43;28.73
39411;BME280;26579;43.238;23.124;2023-04-02T14:32:52;96098.78;;;18.40;27.91
39411;BME280;26579;43.238;23.124;2023-04-02T14:35:35;96097.16;;;18.39;28.45
39411;BME280;26579;43.238;23.124;2023-04-02T14:41:10;96097.16;;;18.39;30.23
39411;BME280;26579;43.238;23.124;2023-04-02T14:43:47;96082.97;;;18.40;29.82
39411;BME280;26579;43.238;23.124;2023-04-02T14:46:16;96074.34;;;18.18;27.91
39411;BME280;26579;43.238;23.124;2023-04-02T14:56:53;96075.91;;;18.12;27.40
39411;BME280;26579;43.238;23.124;2023-04-02T14:59:33;96096.94;;;18.33;28.28
39411;BME280;26579;43.238;23.124;2023-04-02T15:02:08;96103.09;;;18.47;28.09
39411;BME280;26579;43.238;23.124;2023-04-02T15:04:41;96109.00;;;18.56;28.64
39411;BME280;26579;43.238;23.124;2023-04-02T15:07:18;96109.44;;;18.66;28.15
39411;BME280;26579;43.238;23.124;2023-04-02T15:09:50;96117.97;;;18.68;27.16
39411;BME280;26579;43.238;23.124;2023-04-02T15:12:25;96110.69;;;18.70;28.11
39411;BME280;26579;43.238;23.124;2023-04-02T15:15:18;96118.41;;;18.72;28.41
39411;BME280;26579;43.238;23.124;2023-04-02T15:17:45;96116.84;;;18.77;29.34
39411;BME280;26579;43.238;23.124;2023-04-02T15:20:15;96121.97;;;18.51;29.27
39411;BME280;26579;43.238;23.124;2023-04-02T15:25:32;96108.38;;;18.54;29.51
39411;BME280;26579;43.238;23.124;2023-04-02T15:28:28;96121.81;;;18.59;29.79
39411;BME280;26579;43.238;23.124;2023-04-02T15:30:58;96113.19;;;18.44;29.65
39411;BME280;26579;43.238;23.124;2023-04-02T15:38:51;96130.16;;;18.35;30.03
39411;BME280;26579;43.238;23.124;2023-04-02T15:41:31;96120.63;;;18.27;30.81
39411;BME280;26579;43.238;23.124;2023-04-02T15:44:09;96131.72;;;18.22;30.39
39411;BME280;26579;43.238;23.124;2023-04-02T15:47:06;96141.44;;;18.22;30.78
39411;BME280;26579;43.238;23.124;2023-04-02T16:00:23;96155.00;;;18.19;33.16
39411;BME280;26579;43.238;23.124;2023-04-02T16:11:19;96152.84;;;18.01;33.78
39411;BME280;26579;43.238;23.124;2023-04-02T16:13:45;96161.34;;;18.03;35.55
39411;BME280;26579;43.238;23.124;2023-04-02T16:16:35;96157.66;;;17.97;36.36
39411;BME280;26579;43.238;23.124;2023-04-02T16:21:31;96172.94;;;17.80;36.17
39411;BME280;26579;43.238;23.124;2023-04-02T16:23:58;96176.34;;;17.59;35.33
39411;BME280;26579;43.238;23.124;2023-04-02T16:34:39;96185.94;;;17.09;37.64
39411;BME280;26579;43.238;23.124;2023-04-02T16:40:28;96192.31;;;16.85;40.00
39411;BME280;26579;43.238;23.124;2023-04-02T16:43:20;96184.59;;;16.69;39.23
39411;BME280;26579;43.238;23.124;2023-04-02T16:49:08;96191.75;;;16.60;38.92
39411;BME280;26579;43.238;23.124;2023-04-02T16:57:30;96191.94;;;16.29;41.94
39411;BME280;26579;43.238;23.124;2023-04-02T17:08:29;96211.47;;;16.12;42.48
39411;BME280;26579;43.238;23.124;2023-04-02T17:11:06;96222.06;;;16.18;41.56
39411;BME280;26579;43.238;23.124;2023-04-02T17:13:43;96231.97;;;16.08;43.64
39411;BME280;26579;43.238;23.124;2023-04-02T17:18:59;96234.75;;;15.92;43.68